Time;durP1;ratioP1;P1;durP2;ratioP2;P2;SDS_P1;SDS_P2;PMS_P1;PMS_P2;Temp;Humidity;BMP_temperature;BMP_pressure;BME280_temperature;BME280_humidity;BME280_pressure;Samples;Min_cycle;Max_cycle;Signal;HPM_P1;HPM_P2
2021/06/25 00:02:23;;;;;;;24.55;7.25;;;;;;;28.79;48.21;99455.31;4395126;32;35166;-87
2021/06/25 00:04:51;;;;;;;26.02;7.30;;;;;;;28.76;48.13;99453.72;4382936;32;34447;-86
2021/06/25 00:07:19;;;;;;;22.50;6.57;;;;;;;28.78;48.03;99457.16;4382426;32;33645;-87
2021/06/25 00:09:46;;;;;;;36.47;8.05;;;;;;;28.72;48.29;99454.97;4382950;32;34172;-87
2021/06/25 00:12:14;;;;;;;28.55;7.22;;;;;;;28.63;48.48;99444.13;4395183;32;34718;-86
2021/06/25 00:14:42;;;;;;;28.75;7.20;;;;;;;28.64;48.35;99446.72;4382845;32;34394;-87
2021/06/25 00:17:10;;;;;;;27.17;5.82;;;;;;;28.47;49.02;99455.19;4382947;32;34872;-87
2021/06/25 00:19:38;;;;;;;26.58;6.60;;;;;;;28.54;48.53;99447.53;4408936;32;33978;-87
2021/06/25 00:22:06;;;;;;;23.58;6.18;;;;;;;28.59;48.41;99443.56;4370087;32;33052;-87
2021/06/25 00:24:34;;;;;;;26.92;6.57;;;;;;;28.51;48.83;99445.06;4382092;32;33984;-87
2021/06/25 00:27:02;;;;;;;29.05;7.35;;;;;;;28.55;48.79;99447.38;4382072;32;34805;-87
2021/06/25 00:29:30;;;;;;;23.92;6.30;;;;;;;28.50;48.78;99427.34;4394847;32;33502;-87
2021/06/25 00:31:57;;;;;;;25.58;6.72;;;;;;;28.45;49.14;99433.06;4394741;32;35092;-87
2021/06/25 00:34:26;;;;;;;32.63;8.45;;;;;;;28.48;48.92;99440.81;4358224;32;33575;-87
2021/06/25 00:36:54;;;;;;;30.52;6.68;;;;;;;28.44;49.21;99446.53;4394823;32;33527;-87
2021/06/25 00:39:22;;;;;;;28.17;7.03;;;;;;;28.40;49.13;99432.56;4383131;32;34185;-87
2021/06/25 00:41:50;;;;;;;30.58;6.60;;;;;;;28.36;49.09;99447.13;4382816;32;33499;-87
2021/06/25 00:44:19;;;;;;;36.47;7.87;;;;;;;28.31;49.13;99435.97;4370255;32;33428;-87
2021/06/25 00:46:47;;;;;;;30.27;6.35;;;;;;;28.34;49.07;99434.84;4382326;32;37070;-87
2021/06/25 00:49:17;;;;;;;31.08;6.78;;;;;;;28.29;49.18;99432.53;4394965;32;34260;-86
2021/06/25 00:51:45;;;;;;;31.00;6.78;;;;;;;28.26;49.25;99427.47;4408844;32;34300;-87
2021/06/25 00:54:14;;;;;;;32.25;6.97;;;;;;;28.24;49.22;99431.22;4382492;32;35772;-87
2021/06/25 00:56:42;;;;;;;21.90;6.78;;;;;;;28.23;49.19;99429.50;4370129;32;34159;-87
2021/06/25 00:59:10;;;;;;;32.13;7.35;;;;;;;28.19;49.22;99424.38;4382265;32;33519;-87
2021/06/25 01:01:38;;;;;;;27.40;7.12;;;;;;;28.22;49.28;99422.47;4394727;32;33568;-87
2021/06/25 01:04:07;;;;;;;28.98;7.10;;;;;;;28.25;49.20;99423.06;4382342;32;34365;-87
2021/06/25 01:06:36;;;;;;;30.45;7.22;;;;;;;28.18;49.18;99435.22;4381977;32;34212;-87
2021/06/25 01:09:05;;;;;;;29.27;6.90;;;;;;;28.09;49.42;99430.59;4370051;32;33494;-87
2021/06/25 01:11:55;;;;;;;39.30;7.18;;;;;;;28.12;49.46;99428.50;4382076;32;34348;-87
2021/06/25 01:14:23;;;;;;;29.98;7.22;;;;;;;28.19;49.36;99435.09;4394840;32;35300;-87
2021/06/25 01:16:51;;;;;;;26.77;6.22;;;;;;;28.12;49.45;99435.72;4382131;32;33731;-87
2021/06/25 01:19:19;;;;;;;32.17;6.75;;;;;;;28.14;49.45;99431.94;4382602;32;33540;-87
2021/06/25 01:21:48;;;;;;;32.92;7.15;;;;;;;28.09;49.75;99427.91;4382099;32;33590;-87
2021/06/25 01:24:16;;;;;;;31.70;7.28;;;;;;;28.06;49.97;99425.47;4394752;32;34825;-87
2021/06/25 01:26:44;;;;;;;30.48;6.60;;;;;;;28.14;49.81;99426.59;4369842;32;33528;-87
2021/06/25 01:29:14;;;;;;;31.12;6.97;;;;;;;28.14;49.84;99428.41;4382455;32;33848;-87
2021/06/25 01:31:42;;;;;;;22.98;6.28;;;;;;;28.05;50.07;99421.13;4382666;32;34551;-87
2021/06/25 01:34:10;;;;;;;27.42;6.75;;;;;;;28.05;50.35;99421.13;4370173;32;34012;-87
2021/06/25 01:36:38;;;;;;;27.67;6.75;;;;;;;27.94;50.38;99423.72;4395059;32;34032;-87
2021/06/25 01:39:08;;;;;;;36.45;7.55;;;;;;;27.83;50.73;99423.69;4408216;32;34080;-87
2021/06/25 01:41:37;;;;;;;32.05;8.05;;;;;;;27.80;50.99;99430.13;4382380;32;33893;-87
2021/06/25 01:44:07;;;;;;;27.25;6.70;;;;;;;27.72;51.11;99437.87;4370202;32;34304;-87
2021/06/25 01:46:35;;;;;;;24.65;6.43;;;;;;;27.71;51.24;99441.53;4383070;32;33428;-86
2021/06/25 01:49:03;;;;;;;29.00;7.87;;;;;;;27.57;51.17;99456.88;4408734;32;32995;-87
2021/06/25 01:51:31;;;;;;;27.92;7.25;;;;;;;27.41;51.50;99467.84;4369982;32;33223;-87
2021/06/25 01:54:00;;;;;;;28.83;7.65;;;;;;;27.39;51.53;99454.63;4370563;32;33675;-87
2021/06/25 01:56:28;;;;;;;30.40;6.95;;;;;;;27.40;51.65;99456.34;4370248;32;33710;-87
2021/06/25 01:58:56;;;;;;;31.05;8.02;;;;;;;27.39;51.71;99462.63;4383426;32;34218;-86
2021/06/25 02:01:24;;;;;;;30.45;7.93;;;;;;;27.53;51.66;99469.59;4357792;32;33418;-87
2021/06/25 02:03:53;;;;;;;26.83;7.97;;;;;;;27.53;51.67;99467.78;4382516;32;34167;-86
2021/06/25 02:06:22;;;;;;;23.62;7.50;;;;;;;27.44;51.89;99454.25;4382570;32;34229;-87
2021/06/25 02:08:50;;;;;;;27.42;7.97;;;;;;;27.16;52.56;99457.25;4382358;32;33124;-87
2021/06/25 02:11:18;;;;;;;26.17;8.68;;;;;;;27.23;52.46;99459.34;4382223;32;34319;-86
2021/06/25 02:13:46;;;;;;;26.90;8.65;;;;;;;26.89;52.91;99464.59;4395078;32;34530;-87
2021/06/25 02:16:14;;;;;;;22.15;8.13;;;;;;;26.84;53.17;99467.56;4382209;32;35104;-87
2021/06/25 02:18:43;;;;;;;20.02;7.37;;;;;;;26.85;52.69;99463.97;4382446;32;33902;-87
2021/06/25 02:21:11;;;;;;;20.20;7.45;;;;;;;26.57;53.26;99458.84;4394721;32;34571;-89
2021/06/25 02:23:40;;;;;;;27.10;8.77;;;;;;;26.45;53.53;99465.91;4370008;32;33959;-88
2021/06/25 02:26:10;;;;;;;18.65;7.35;;;;;;;26.54;53.19;99469.72;4369889;32;34226;-90
2021/06/25 02:28:38;;;;;;;15.23;7.00;;;;;;;26.47;53.53;99458.66;4394795;32;34168;-90
2021/06/25 02:31:07;;;;;;;21.30;7.97;;;;;;;26.35;53.97;99464.00;4394386;32;33550;-88
2021/06/25 02:33:35;;;;;;;20.35;7.45;;;;;;;26.38;53.94;99463.78;4394593;32;33825;-88
2021/06/25 02:36:03;;;;;;;19.70;7.47;;;;;;;26.36;53.92;99460.37;4394583;32;34466;-88
2021/06/25 02:38:30;;;;;;;21.17;7.57;;;;;;;26.31;54.02;99458.03;4382156;32;33441;-88
2021/06/25 02:40:59;;;;;;;18.08;7.57;;;;;;;26.38;53.79;99456.62;4394524;32;33855;-85
2021/06/25 02:43:27;;;;;;;19.20;7.62;;;;;;;26.46;53.65;99464.94;4394496;32;34550;-86
2021/06/25 02:45:55;;;;;;;19.40;7.37;;;;;;;26.30;54.22;99463.44;4394238;32;34174;-86
2021/06/25 02:48:24;;;;;;;23.12;9.05;;;;;;;26.37;54.09;99459.41;4394331;32;33940;-89
2021/06/25 02:50:52;;;;;;;27.50;8.88;;;;;;;26.26;54.45;99454.84;4382458;32;33794;-88
2021/06/25 02:53:20;;;;;;;15.88;8.20;;;;;;;26.22;54.56;99444.50;4383824;32;34125;-88
2021/06/25 02:55:51;;;;;;;20.98;7.82;;;;;;;25.95;55.37;99441.88;4409895;32;33987;-88
2021/06/25 02:58:23;;;;;;;20.55;8.05;;;;;;;25.90;55.79;99444.87;4359287;32;33029;-88
2021/06/25 03:00:55;;;;;;;20.92;8.20;;;;;;;25.84;55.94;99452.44;4396260;32;34192;-88
2021/06/25 03:03:25;;;;;;;16.85;8.23;;;;;;;25.92;55.72;99442.06;4384137;32;35791;-88
2021/06/25 03:05:54;;;;;;;16.10;7.80;;;;;;;25.93;55.81;99455.31;4383769;32;33276;-88
2021/06/25 03:08:22;;;;;;;18.55;8.02;;;;;;;25.85;55.91;99456.78;4383477;32;33272;-88
2021/06/25 03:10:50;;;;;;;21.50;8.18;;;;;;;25.71;56.33;99446.19;4383826;32;33965;-88
2021/06/25 03:13:20;;;;;;;11.93;6.85;;;;;;;25.77;56.08;99459.97;4383556;32;34436;-88
2021/06/25 03:15:48;;;;;;;16.83;7.72;;;;;;;25.86;55.96;99462.03;4396254;32;34303;-89
2021/06/25 03:18:16;;;;;;;16.50;7.70;;;;;;;25.88;56.04;99473.44;4371392;32;33551;-88
2021/06/25 03:20:45;;;;;;;17.42;7.65;;;;;;;25.94;55.66;99470.31;4384024;32;33898;-88
2021/06/25 03:23:13;;;;;;;14.18;7.53;;;;;;;25.82;55.84;99464.97;4383904;32;34380;-89
2021/06/25 03:25:41;;;;;;;21.90;8.18;;;;;;;25.77;55.91;99467.13;4383425;32;33611;-88
2021/06/25 03:28:10;;;;;;;15.07;7.45;;;;;;;25.73;56.10;99482.44;4395847;32;33074;-90
2021/06/25 03:30:37;;;;;;;24.02;8.43;;;;;;;25.61;56.46;99495.72;4395872;32;34360;-87
2021/06/25 03:33:06;;;;;;;12.85;7.80;;;;;;;25.44;56.84;99489.69;4409836;32;35120;-87
2021/06/25 03:35:35;;;;;;;15.73;7.22;;;;;;;25.57;56.42;99495.06;4396061;32;34132;-86
2021/06/25 03:38:03;;;;;;;12.23;6.90;;;;;;;25.62;56.09;99490.31;4383721;32;33123;-87
2021/06/25 03:40:34;;;;;;;15.18;7.25;;;;;;;25.72;55.79;99495.88;4383280;32;34210;-86
2021/06/25 03:43:03;;;;;;;11.52;7.05;;;;;;;25.71;55.48;99505.66;4383102;32;35705;-87
2021/06/25 03:45:31;;;;;;;11.95;6.93;;;;;;;25.66;55.63;99502.44;4370907;32;33558;-85
2021/06/25 03:47:59;;;;;;;19.95;6.90;;;;;;;25.62;55.50;99508.94;4383329;32;32838;-85
2021/06/25 03:50:27;;;;;;;14.15;6.35;;;;;;;25.61;55.48;99509.88;4409763;32;34689;-86
2021/06/25 03:52:57;;;;;;;16.20;7.05;;;;;;;25.27;56.05;99513.03;4371456;32;34169;-87
2021/06/25 03:55:24;;;;;;;14.75;6.90;;;;;;;25.37;55.68;99506.13;4409420;32;34239;-87
2021/06/25 03:57:54;;;;;;;16.87;7.03;;;;;;;25.25;55.81;99512.25;4371355;32;33073;-85
2021/06/25 04:00:22;;;;;;;13.57;6.47;;;;;;;25.27;55.92;99513.03;4383441;32;33849;-86
2021/06/25 04:02:50;;;;;;;16.15;6.82;;;;;;;25.35;55.60;99519.56;4395489;32;35094;-86
2021/06/25 04:05:19;;;;;;;15.70;6.45;;;;;;;25.33;55.74;99520.59;4371291;32;33051;-87
2021/06/25 04:07:47;;;;;;;9.80;6.15;;;;;;;25.43;55.83;99524.38;4396066;32;34282;-85
2021/06/25 04:10:15;;;;;;;19.00;7.10;;;;;;;25.58;55.78;99528.72;4383734;32;33263;-86
2021/06/25 04:12:43;;;;;;;19.23;6.72;;;;;;;25.43;56.12;99529.72;4383208;32;34815;-85
2021/06/25 04:15:11;;;;;;;13.52;6.43;;;;;;;25.54;56.03;99524.56;4383318;32;32633;-87
2021/06/25 04:17:39;;;;;;;12.20;5.93;;;;;;;25.52;55.70;99527.34;4358622;32;32028;-87
2021/06/25 04:20:07;;;;;;;14.10;6.90;;;;;;;25.52;56.14;99531.78;4370883;32;34644;-88
2021/06/25 04:22:35;;;;;;;17.55;6.68;;;;;;;25.46;56.07;99533.03;4395478;32;34750;-87
2021/06/25 04:25:04;;;;;;;12.63;6.75;;;;;;;25.60;56.31;99537.50;4395664;32;33266;-86
2021/06/25 04:27:32;;;;;;;14.35;6.60;;;;;;;25.69;55.36;99544.88;4383524;32;34021;-86
2021/06/25 04:29:59;;;;;;;14.02;6.40;;;;;;;25.55;55.43;99548.41;4371080;32;34445;-86
2021/06/25 04:32:28;;;;;;;9.82;5.80;;;;;;;25.55;55.49;99560.91;4409358;32;34762;-87
2021/06/25 04:34:56;;;;;;;14.90;5.82;;;;;;;25.64;54.90;99559.44;4395694;32;34170;-86
2021/06/25 04:37:23;;;;;;;30.75;6.30;;;;;;;25.70;54.96;99567.03;4395784;32;33238;-87
2021/06/25 04:39:53;;;;;;;15.93;5.93;;;;;;;25.73;54.90;99567.69;4383445;32;34456;-86
2021/06/25 04:42:21;;;;;;;13.73;5.55;;;;;;;25.81;55.58;99561.84;4383335;32;35269;-87
2021/06/25 04:44:49;;;;;;;11.27;5.93;;;;;;;25.85;54.68;99566.00;4383080;32;34425;-86
2021/06/25 04:47:17;;;;;;;10.63;5.45;;;;;;;25.89;54.84;99568.38;4370753;32;32271;-87
2021/06/25 04:49:45;;;;;;;11.38;5.22;;;;;;;25.83;54.82;99563.47;4383181;32;33263;-87
2021/06/25 04:52:13;;;;;;;13.93;5.90;;;;;;;25.79;54.41;99559.28;4383123;32;33126;-87
2021/06/25 04:54:41;;;;;;;12.93;5.18;;;;;;;25.76;54.30;99571.94;4382627;32;33142;-86
2021/06/25 04:57:10;;;;;;;11.55;5.53;;;;;;;25.65;54.41;99572.63;4382801;32;33079;-87
2021/06/25 04:59:38;;;;;;;12.80;5.18;;;;;;;25.73;54.56;99562.34;4395624;32;33294;-86
2021/06/25 05:02:07;;;;;;;13.27;5.60;;;;;;;25.67;54.25;99557.44;4395577;32;35243;-87
2021/06/25 05:04:35;;;;;;;12.32;5.60;;;;;;;25.79;54.42;99564.63;4383450;32;33407;-87
2021/06/25 05:07:06;;;;;;;16.60;5.80;;;;;;;25.68;54.69;99564.44;4382625;32;35967;-87
2021/06/25 05:09:33;;;;;;;12.07;5.62;;;;;;;25.67;54.72;99565.44;4408941;32;34237;-86
2021/06/25 05:12:03;;;;;;;14.07;5.70;;;;;;;25.65;54.82;99554.00;4370852;32;34990;-86
2021/06/25 05:14:30;;;;;;;10.55;5.50;;;;;;;25.74;54.64;99563.22;4394948;32;34065;-86
2021/06/25 05:16:59;;;;;;;11.20;5.05;;;;;;;25.65;55.41;99564.66;4383041;32;32578;-86
2021/06/25 05:19:26;;;;;;;11.60;5.40;;;;;;;25.49;55.85;99564.81;4370507;32;34082;-85
2021/06/25 05:21:55;;;;;;;13.80;5.80;;;;;;;25.66;55.06;99566.37;4406570;32;33513;-84
2021/06/25 05:24:23;;;;;;;14.90;5.72;;;;;;;26.00;54.89;99565.84;4392385;32;34957;-85
2021/06/25 05:26:51;;;;;;;11.45;5.28;;;;;;;25.86;55.02;99565.06;4381255;32;34930;-84
2021/06/25 05:29:19;;;;;;;11.85;4.95;;;;;;;26.10;54.43;99563.44;4391933;32;35147;-83
2021/06/25 05:31:47;;;;;;;9.48;4.60;;;;;;;25.95;54.35;99565.31;4365495;32;35225;-85
2021/06/25 05:34:15;;;;;;;8.27;5.50;;;;;;;26.22;54.11;99557.28;4391151;32;33678;-85
2021/06/25 05:36:43;;;;;;;12.75;5.22;;;;;;;26.40;55.12;99560.50;4390125;32;33347;-83
2021/06/25 05:39:12;;;;;;;8.93;4.80;;;;;;;26.39;53.08;99561.47;4376371;32;34896;-85
2021/06/25 05:41:40;;;;;;;9.13;4.22;;;;;;;26.28;53.57;99561.34;4377187;32;34015;-86
2021/06/25 05:44:08;;;;;;;10.27;4.87;;;;;;;26.48;53.11;99564.34;4403682;32;34915;-86
2021/06/25 05:46:37;;;;;;;9.50;4.65;;;;;;;26.69;53.96;99564.69;4365344;32;33645;-87
2021/06/25 05:49:05;;;;;;;10.38;4.60;;;;;;;26.75;52.66;99559.81;4406669;32;34886;-86
2021/06/25 05:51:33;;;;;;;9.88;4.32;;;;;;;26.67;52.19;99564.78;4378980;32;35210;-85
2021/06/25 05:54:02;;;;;;;7.57;4.12;;;;;;;26.66;52.91;99567.56;4388709;32;33871;-86
2021/06/25 05:56:30;;;;;;;7.72;4.60;;;;;;;26.95;51.39;99563.75;4376579;32;32812;-85
2021/06/25 05:58:58;;;;;;;11.35;4.80;;;;;;;27.13;51.05;99556.22;4376776;32;35093;-86
2021/06/25 06:01:29;;;;;;;10.18;4.10;;;;;;;27.09;51.43;99563.62;4403074;32;35718;-85
2021/06/25 06:03:57;;;;;;;12.52;4.95;;;;;;;27.24;50.92;99562.50;4376586;32;33394;-87
2021/06/25 06:06:25;;;;;;;9.23;3.92;;;;;;;27.19;51.82;99559.34;4381960;32;33456;-85
2021/06/25 06:08:53;;;;;;;10.18;3.97;;;;;;;27.25;51.16;99566.91;4394901;32;34724;-86
2021/06/25 06:11:21;;;;;;;9.18;4.35;;;;;;;27.15;51.02;99573.84;4394827;32;35346;-87
2021/06/25 06:13:49;;;;;;;9.35;4.20;;;;;;;27.29;50.12;99579.03;4381627;32;33883;-86
2021/06/25 06:16:17;;;;;;;6.87;4.55;;;;;;;27.45;50.13;99586.84;4394891;32;34665;-87
2021/06/25 06:18:47;;;;;;;6.72;4.07;;;;;;;27.38;49.80;99593.59;4394847;32;34781;-86
2021/06/25 06:21:18;;;;;;;7.57;4.47;;;;;;;27.40;49.92;99597.00;4382713;32;34340;-86
2021/06/25 06:34:36;;;;;;;6.90;3.67;;;;;;;27.52;49.03;99610.34;4382135;32;33017;-86
2021/06/25 06:37:05;;;;;;;11.32;3.90;;;;;;;27.39;49.37;99617.53;4394841;32;34402;-87
2021/06/25 06:39:33;;;;;;;6.25;3.87;;;;;;;27.39;49.77;99620.19;4394961;32;33881;-87
2021/06/25 06:42:02;;;;;;;8.73;4.28;;;;;;;27.59;49.05;99621.44;4394709;32;35397;-86
2021/06/25 06:44:30;;;;;;;8.35;3.83;;;;;;;27.74;48.75;99614.13;4394400;32;33521;-87
2021/06/25 06:46:58;;;;;;;8.82;3.80;;;;;;;27.91;48.50;99614.56;4408245;32;33291;-86
2021/06/25 06:49:26;;;;;;;6.55;3.87;;;;;;;27.96;48.27;99620.44;4369749;32;33317;-86
2021/06/25 06:51:54;;;;;;;9.07;3.60;;;;;;;28.05;48.18;99621.63;4381989;32;35139;-86
2021/06/25 06:54:22;;;;;;;6.75;3.33;;;;;;;28.11;47.90;99621.13;4382337;32;34735;-87
2021/06/25 06:56:51;;;;;;;9.23;4.07;;;;;;;28.11;48.36;99622.00;4382295;32;32370;-87
2021/06/25 06:59:19;;;;;;;7.80;3.62;;;;;;;28.27;47.86;99628.84;4381520;32;33579;-86
2021/06/25 07:01:47;;;;;;;9.95;3.95;;;;;;;28.53;46.67;99633.06;4388576;32;34588;-87
2021/06/25 07:04:30;;;;;;;13.95;4.10;;;;;;;28.54;47.26;99638.34;4380488;32;33944;-87
2021/06/25 07:06:58;;;;;;;8.43;3.47;;;;;;;28.61;46.17;99631.56;4404172;32;34684;-87
2021/06/25 07:09:27;;;;;;;8.18;3.47;;;;;;;28.75;47.09;99631.38;4373203;32;34420;-86
2021/06/25 07:11:55;;;;;;;5.80;3.87;;;;;;;28.80;46.01;99623.84;4383702;32;34868;-87
2021/06/25 07:14:24;;;;;;;7.90;3.97;;;;;;;29.14;46.16;99626.53;4396419;32;34907;-87
2021/06/25 07:16:52;;;;;;;9.23;3.75;;;;;;;29.12;45.41;99629.31;4396473;32;32335;-88
2021/06/25 07:19:20;;;;;;;6.62;3.50;;;;;;;29.32;45.17;99631.31;4397026;32;33318;-87
2021/06/25 07:21:48;;;;;;;9.63;3.83;;;;;;;29.10;45.57;99633.94;4422934;32;34408;-87
2021/06/25 07:24:16;;;;;;;7.47;3.80;;;;;;;29.12;44.74;99639.22;4383889;32;34837;-87
2021/06/25 07:26:44;;;;;;;8.02;3.95;;;;;;;29.54;45.23;99634.94;4408825;32;32957;-87
2021/06/25 07:29:14;;;;;;;6.03;3.80;;;;;;;29.64;44.94;99626.06;4396683;32;33208;-87
2021/06/25 07:31:42;;;;;;;8.95;3.47;;;;;;;29.60;44.83;99635.31;4396640;32;34969;-87
2021/06/25 07:34:11;;;;;;;6.32;3.67;;;;;;;29.83;44.88;99647.75;4396738;32;34711;-88
2021/06/25 07:36:40;;;;;;;7.85;3.50;;;;;;;30.05;43.40;99642.31;4396497;32;34062;-87
2021/06/25 07:39:09;;;;;;;7.97;3.40;;;;;;;30.21;43.89;99646.41;4410499;32;33828;-87
2021/06/25 07:41:37;;;;;;;15.15;3.83;;;;;;;30.27;44.54;99659.28;4398928;32;33886;-88
2021/06/25 07:44:07;;;;;;;9.35;3.90;;;;;;;30.46;43.50;99656.81;4398474;32;33737;-87
2021/06/25 07:46:35;;;;;;;5.00;3.60;;;;;;;30.41;44.62;99662.56;4386637;32;33142;-88
2021/06/25 07:49:03;;;;;;;6.30;3.70;;;;;;;30.44;43.57;99659.63;4411516;32;33820;-89
2021/06/25 07:51:32;;;;;;;6.40;3.28;;;;;;;30.82;44.20;99659.06;4398404;32;34364;-84
2021/06/25 07:53:59;;;;;;;7.18;3.55;;;;;;;30.79;42.81;99670.03;4386128;32;34814;-86
2021/06/25 07:56:29;;;;;;;7.68;3.70;;;;;;;30.88;42.71;99669.25;4374364;32;34044;-88
2021/06/25 07:58:57;;;;;;;6.00;2.90;;;;;;;30.95;41.60;99664.25;4368965;32;33662;-87
2021/06/25 08:01:25;;;;;;;9.18;3.20;;;;;;;31.02;40.96;99663.59;4380802;32;33891;-81
2021/06/25 08:03:54;;;;;;;7.12;3.80;;;;;;;31.19;41.50;99662.97;4381062;32;33970;-86
2021/06/25 08:06:23;;;;;;;6.95;2.80;;;;;;;30.95;40.78;99673.19;4368203;32;32487;-86
2021/06/25 08:08:52;;;;;;;10.35;3.58;;;;;;;31.04;41.33;99668.84;4394289;32;34153;-85
2021/06/25 08:11:21;;;;;;;5.20;3.30;;;;;;;31.22;41.28;99665.41;4383737;32;35687;-88
2021/06/25 08:13:48;;;;;;;13.20;3.35;;;;;;;30.74;41.76;99669.59;4383260;32;34644;-87
2021/06/25 08:16:16;;;;;;;8.38;3.40;;;;;;;31.00;41.51;99676.28;4395574;32;33367;-87
2021/06/25 08:18:45;;;;;;;9.18;3.75;;;;;;;31.23;40.74;99659.06;4409690;32;34642;-87
2021/06/25 08:21:12;;;;;;;5.82;3.20;;;;;;;31.10;39.64;99661.09;4395938;32;34455;-87
2021/06/25 08:23:40;;;;;;;7.55;3.00;;;;;;;31.16;41.71;99660.56;4371075;32;34022;-87
2021/06/25 08:26:08;;;;;;;5.47;3.03;;;;;;;31.03;40.24;99665.28;4370928;32;32249;-87
2021/06/25 08:28:37;;;;;;;7.80;3.12;;;;;;;31.21;40.73;99662.84;4395912;32;33753;-86
2021/06/25 08:31:05;;;;;;;16.73;4.47;;;;;;;31.20;40.50;99663.84;4409301;32;34566;-86
2021/06/25 08:33:33;;;;;;;13.62;4.50;;;;;;;31.32;40.24;99669.00;4358670;32;33544;-86
2021/06/25 08:36:01;;;;;;;29.02;6.87;;;;;;;31.32;40.47;99652.00;4383183;32;33994;-86
2021/06/25 08:38:29;;;;;;;10.38;3.78;;;;;;;31.33;39.32;99657.25;4370653;32;34438;-87
2021/06/25 08:40:57;;;;;;;11.18;4.12;;;;;;;31.48;40.12;99665.81;4383304;32;35083;-85
2021/06/25 08:43:26;;;;;;;15.25;4.35;;;;;;;31.16;40.05;99663.25;4395601;32;33625;-86
2021/06/25 08:45:54;;;;;;;12.05;3.35;;;;;;;31.18;40.82;99673.87;4370291;32;34115;-87
2021/06/25 08:48:24;;;;;;;9.43;3.25;;;;;;;31.25;40.30;99678.56;4382423;32;34241;-86
2021/06/25 08:50:55;;;;;;;7.57;3.00;;;;;;;31.23;40.84;99672.50;4395622;32;34392;-85
2021/06/25 08:53:26;;;;;;;9.52;3.72;;;;;;;31.15;40.74;99672.28;4392418;32;93770;-85
2021/06/25 08:55:53;;;;;;;6.28;2.62;;;;;;;31.25;41.22;99678.56;4395608;32;34192;-85
2021/06/25 08:58:22;;;;;;;17.25;5.25;;;;;;;31.34;41.07;99675.06;4382830;32;33497;-85
2021/06/25 09:00:52;;;;;;;6.87;3.15;;;;;;;31.29;41.33;99673.78;4393750;32;33829;-85
2021/06/25 09:03:27;;;;;;;9.93;2.95;;;;;;;31.18;40.47;99682.78;4410768;32;34081;-86
2021/06/25 09:06:12;;;;;;;9.95;3.03;;;;;;;31.37;40.12;99673.97;4398661;32;32478;-85
2021/06/25 09:08:40;;;;;;;;;;;;;;;31.39;40.66;99677.34;4385377;32;33269;-86
2021/06/25 09:11:19;;;;;;;8.70;4.30;;;;;;;31.32;41.64;99674.38;4398359;32;34005;-85
2021/06/25 09:13:47;;;;;;;12.37;4.47;;;;;;;31.58;40.71;99674.78;4410667;32;33989;-86
2021/06/25 09:16:27;;;;;;;8.23;4.28;;;;;;;31.39;40.62;99675.53;4398367;32;32828;-85
2021/06/25 09:19:06;;;;;;;6.37;3.20;;;;;;;31.65;41.61;99669.72;4409941;32;33783;-86
2021/06/25 09:21:41;;;;;;;4.47;2.85;;;;;;;31.77;40.27;99674.00;4370599;32;34798;-87
2021/06/25 09:24:22;;;;;;;5.22;2.80;;;;;;;31.80;40.54;99671.03;4410030;32;34122;-87
2021/06/25 09:26:57;;;;;;;8.40;2.70;;;;;;;31.77;40.95;99665.94;4397606;32;33332;-88
2021/06/25 09:29:28;;;;;;;14.43;11.93;;;;;;;32.00;39.36;99660.19;4409834;32;34032;-87
2021/06/25 09:32:04;;;;;;;6.60;3.85;;;;;;;31.98;39.62;99656.81;4409841;32;33365;-87
2021/06/25 09:34:39;;;;;;;18.52;5.25;;;;;;;31.82;40.08;99655.59;4389778;32;33389;-85
2021/06/25 09:37:13;;;;;;;5.22;2.80;;;;;;;31.78;38.92;99659.56;4382453;32;33493;-87
2021/06/25 09:39:56;;;;;;;6.32;2.87;;;;;;;31.92;39.90;99646.59;4379705;32;34427;-88
2021/06/25 09:42:25;;;;;;;15.15;4.15;;;;;;;31.91;39.59;99646.72;4381511;32;33699;-87
2021/06/25 09:45:05;;;;;;;8.25;5.18;;;;;;;31.73;40.35;99645.69;4380083;32;34674;-87
2021/06/25 09:47:36;;;;;;;5.72;3.60;;;;;;;31.81;39.72;99644.00;4370497;32;32512;-87
2021/06/25 09:50:09;;;;;;;8.88;3.40;;;;;;;31.74;39.67;99642.84;4387731;32;34717;-87
2021/06/25 09:52:59;;;;;;;23.42;5.87;;;;;;;31.79;40.10;99643.28;4387754;32;34774;-87
2021/06/25 10:01:25;;;;;;;7.75;3.33;;;;;;;31.77;39.17;99636.34;4371601;32;33830;-86
2021/06/25 10:03:53;;;;;;;;;;;;;;;31.77;40.33;99633.66;4375477;32;35025;-87
2021/06/25 10:06:27;;;;;;;5.28;3.30;;;;;;;31.81;41.17;99645.81;4409777;32;34084;-88
2021/06/25 10:08:56;;;;;;;5.45;2.92;;;;;;;31.94;39.72;99643.75;4375010;32;33062;-87
2021/06/25 10:11:26;;;;;;;9.30;3.10;;;;;;;31.80;40.37;99641.47;4392254;32;33174;-86
2021/06/25 10:13:56;;;;;;;6.25;3.90;;;;;;;31.86;39.80;99646.25;4401119;32;36565;-87
2021/06/25 10:16:25;;;;;;;9.10;4.83;;;;;;;32.02;39.44;99646.62;4382328;32;34894;-86
2021/06/25 10:19:21;;;;;;;9.05;4.12;;;;;;;31.96;39.25;99647.16;4394278;32;33965;-86
2021/06/25 10:21:50;;;;;;;6.47;2.80;;;;;;;31.94;39.29;99651.81;4393775;32;34014;-85
2021/06/25 10:24:18;;;;;;;5.15;3.50;;;;;;;31.71;38.08;99643.16;4388157;32;34545;-86
2021/06/25 10:26:47;;;;;;;9.02;3.42;;;;;;;31.91;38.33;99646.72;4390111;32;35346;-87
2021/06/25 10:29:15;;;;;;;13.73;4.35;;;;;;;31.93;38.41;99648.28;4384660;32;33657;-86
2021/06/25 10:31:43;;;;;;;7.22;4.55;;;;;;;31.75;38.98;99643.72;4408585;32;34497;-86
2021/06/25 10:34:12;;;;;;;8.77;3.40;;;;;;;31.97;38.51;99643.50;4383803;32;33762;-87
2021/06/25 10:36:41;;;;;;;6.00;3.65;;;;;;;31.85;38.27;99645.44;4403305;32;34565;-87
2021/06/25 10:39:11;;;;;;;11.90;8.00;;;;;;;31.83;38.73;99643.87;4408111;32;32968;-86
2021/06/25 10:41:49;;;;;;;7.05;3.60;;;;;;;32.15;39.02;99652.59;4393983;32;33693;-87
2021/06/25 10:44:34;;;;;;;6.10;4.55;;;;;;;32.20;37.99;99650.31;4394169;32;34117;-89
2021/06/25 10:47:23;;;;;;;5.80;3.00;;;;;;;32.23;37.30;99647.38;4387597;32;33298;-86
2021/06/25 10:50:21;;;;;;;6.97;3.72;;;;;;;32.33;36.86;99644.69;4400493;32;33138;-86
2021/06/25 10:53:13;;;;;;;6.62;3.20;;;;;;;32.25;36.53;99653.44;4377231;32;34014;-86
2021/06/25 10:55:46;;;;;;;12.02;3.70;;;;;;;32.08;37.92;99640.69;4407279;32;35636;-87
2021/06/25 10:58:25;;;;;;;13.27;4.35;;;;;;;32.35;37.19;99650.75;4398428;32;33658;-88
2021/06/25 11:00:57;;;;;;;9.50;3.20;;;;;;;32.33;35.91;99631.22;4394595;32;33928;-89
2021/06/25 11:03:38;;;;;;;6.85;2.95;;;;;;;32.48;37.26;99644.09;4383385;32;34393;-88
2021/06/25 11:06:10;;;;;;;10.05;4.35;;;;;;;32.70;35.83;99638.44;4385946;32;34266;-91
2021/06/25 11:09:04;;;;;;;12.63;3.40;;;;;;;32.64;35.73;99635.47;4379009;32;33954;-88
2021/06/25 11:11:33;;;;;;;8.75;3.20;;;;;;;32.59;35.67;99632.38;4378313;32;34612;-88
2021/06/25 11:14:02;;;;;;;3.08;2.78;;;;;;;32.58;35.42;99633.34;4382865;32;34554;-89
2021/06/25 11:16:30;;;;;;;4.80;2.75;;;;;;;32.78;34.59;99625.09;4377657;32;35320;-87
2021/06/25 11:18:59;;;;;;;9.63;3.30;;;;;;;32.68;34.93;99629.66;4383844;32;33009;-88
2021/06/25 11:21:43;;;;;;;8.70;2.83;;;;;;;32.80;35.67;99633.03;4403758;32;33537;-87
2021/06/25 11:24:12;;;;;;;6.85;3.22;;;;;;;32.78;34.78;99627.78;4386105;32;33893;-88
2021/06/25 11:26:54;;;;;;;6.93;3.33;;;;;;;32.81;35.44;99628.50;4387971;32;35390;-88
2021/06/25 11:29:41;;;;;;;6.40;2.75;;;;;;;32.76;34.34;99621.69;4394105;32;34833;-87
2021/06/25 11:32:26;;;;;;;5.53;2.97;;;;;;;32.86;35.84;99626.19;4362891;32;32921;-92
2021/06/25 11:34:56;;;;;;;3.03;2.60;;;;;;;32.88;33.34;99622.38;4375145;32;33192;-92
2021/06/25 11:37:56;;;;;;;7.40;2.62;;;;;;;32.72;33.34;99625.69;4383232;32;35433;-90
2021/06/25 11:40:48;;;;;;;5.70;2.87;;;;;;;32.97;33.31;99617.97;4358024;32;33564;-91
2021/06/25 11:43:19;;;;;;;7.15;2.70;;;;;;;33.01;33.15;99624.75;4379299;32;33979;-89
2021/06/25 11:45:50;;;;;;;6.68;2.55;;;;;;;32.84;32.98;99633.59;4376369;32;34213;-91
2021/06/25 11:48:21;;;;;;;6.72;2.95;;;;;;;32.74;33.43;99629.06;4372083;32;34123;-93
2021/06/25 11:50:57;;;;;;;8.02;2.70;;;;;;;32.82;33.36;99627.50;4353731;32;33151;-94
2021/06/25 11:53:25;;;;;;;7.40;2.60;;;;;;;32.78;33.13;99625.09;4355290;32;35072;-92
2021/06/25 11:55:54;;;;;;;9.77;2.80;;;;;;;32.85;32.88;99620.00;4401511;32;34014;-91
2021/06/25 11:58:22;;;;;;;5.68;3.12;;;;;;;32.70;33.04;99621.44;4375850;32;35212;-89
2021/06/25 12:01:03;;;;;;;5.05;2.67;;;;;;;32.84;32.54;99604.81;4400438;32;34814;-88